Ergebnisliste vom: 08.08.2010 - Werbellinsee-Triathlon2010 - Kurz(1,5-45-11)

weitere Ergebnisse >>

Plg. Plm Plw StNr. Name,Vorname Verein GJ Ak AKm AKw Endzeit Schwimmzeit Radzeit Schw+Rad Laufzeit Rückst. Zstr. WB
1 1   482 Ueberschär, Olaf Triathlon-Team Mitteld. 84 TM25 1   2:12:09 0:20:08( 6 ) 1:13:03( 2 ) 1:33:11( 3 ) 0:38:58( 1 ) 0:00:00   4
2 2   429 Mack, Alexander ASV Sun Sport Team 78 TM30 1   2:14:55 0:19:49( 5 ) 1:11:06( 1 ) 1:30:55( 1 ) 0:44:00( 7 ) 0:02:46   4
3 3   454 Rutkowski, Frank SCC Berlin Triathlon 65 TM45 1   2:18:26 0:21:09( 10 ) 1:13:46( 5 ) 1:34:55( 6 ) 0:43:31( 4 ) 0:06:17   4
4 4   433 Michel, Eric LFV Oberholz 89 TM20 1   2:19:24 0:17:54( 1 ) 1:15:18( 11 ) 1:33:12( 4 ) 0:46:12( 10 ) 0:07:15   4
5 5   510 Druska, Frank TV 06 Thalmässing 70 TM40 1   2:19:36 0:00:00 0:00:00 1:37:54( 11 ) 0:41:42( 2 ) 0:07:27   4
6 6   413 Köhler, Lars Tri Finisher 66 TM40 2   2:19:59 0:19:27( 3 ) 1:13:07( 4 ) 1:32:34( 2 ) 0:47:25( 15 ) 0:07:50   4
7 7   489 Werner, Marc LFV Oberholz 77 TM30 2   2:20:26 0:22:00( 12 ) 1:15:47( 15 ) 1:37:47( 8 ) 0:42:39( 3 ) 0:08:17   4
8 8   473 Sommer, Karsten SSV Hohen Neuendorf 65 TM45 2   2:23:24 0:22:07( 16 ) 1:14:14( 6 ) 1:36:21( 7 ) 0:47:03( 14 ) 0:11:15   4
9 9   393 Henze, Nico ESV Tri-Team (Edewecht) 77 TM30 3   2:23:46 0:20:46( 7 ) 1:13:04( 3 ) 1:33:50( 5 ) 0:49:56( 30 ) 0:11:37   4
10 10   503 Panzer, Mitja KSV Ajax Neptun Berlin 70 TM40 3   2:24:02 0:25:12( 42 ) 1:15:10( 10 ) 1:40:22( 17 ) 0:43:40( 5 ) 0:11:53   4
11 11   431 Mehrlein, Andreas IRONCLUB 59 TM50 1   2:24:30 0:25:21( 47 ) 1:14:56( 8 ) 1:40:17( 16 ) 0:44:13( 8 ) 0:12:21   4
12 12   474 Spangenberg, Jan VfL Eilenburg 81 TM25 2   2:24:47 0:22:04( 13 ) 1:15:46( 14 ) 1:37:50( 9 ) 0:46:57( 13 ) 0:12:38   4
13 13   378 Frölich, André   75 TM35 1   2:25:17 0:20:47( 8 ) 1:19:51( 39 ) 1:40:38( 21 ) 0:44:39( 9 ) 0:13:08   4
13 13   397 Hömberg, Tobias TriTeamBerlin 76 TM30 4   2:25:17 0:23:06( 25 ) 1:18:13( 26 ) 1:41:19( 25 ) 0:43:58( 6 ) 0:13:08   4
15 15   498 Bartusch, Jörn TV Fürstenwalde 1990 e.V. 69 TM40 4   2:26:22 0:23:11( 27 ) 0:00:00 0:00:00 0:00:00 0:14:13   4
16 16   514 Gärtner, Olaf MSV Tripoint Frankfurt Oder 71 TM35 2   2:26:32 0:20:50( 9 ) 1:17:12( 18 ) 1:38:02( 14 ) 0:48:30( 20 ) 0:14:23   4
17 17   375 Förster, Marc Berliner Wasserratten 69 TM40 5   2:27:05 0:22:18( 21 ) 1:15:38( 12 ) 1:37:56( 12 ) 0:49:09( 24 ) 0:14:56   4
18 18   439 Mühl, Eiko Tri Team Berlin 67 TM40 6   2:27:17 0:22:16( 19 ) 1:15:43( 13 ) 1:37:59( 13 ) 0:49:18( 26 ) 0:15:08   4
19 19   516 Liebsch, Max SV Stahl Hennigsdorf 91 mJun 1   2:28:58 0:23:53( 33 ) 1:16:49( 16 ) 1:40:42( 23 ) 0:48:16( 18 ) 0:16:49   4
20 20   392 Hentsch, Philip OTD 83 TM25 3   2:29:08 0:23:47( 32 ) 1:18:54( 31 ) 1:42:41( 27 ) 0:46:27( 11 ) 0:16:59   4
21   1 488 Weißbach, Diana A3K Berlin 84 TW25   1 2:29:44 0:19:28( 4 ) 1:18:22( 27 ) 1:37:50( 9 ) 0:51:54( 47 ) 0:17:35   4
22 21   427 Liepe, Mario VfL Eilenburg 79 TM30 5   2:30:19 0:22:16( 19 ) 1:17:56( 24 ) 1:40:12( 15 ) 0:50:07( 31 ) 0:18:10   4
23 22   456 Schatz, Ulrich Berlin 67 TM40 7   2:31:25 0:21:56( 11 ) 1:18:33( 28 ) 1:40:29( 19 ) 0:50:56( 38 ) 0:19:16   4
24 23   509 Petermann, Dirk KSV Ajax Neptun Berlin 72 TM35 3   2:31:45 0:19:23( 2 ) 1:21:12( 53 ) 1:40:35( 20 ) 0:51:10( 42 ) 0:19:36   4
25 24   470 Schulz, Mathias Lupus-Team Zehdenick 70 TM40 8   2:32:05 0:25:17( 44 ) 1:20:10( 42 ) 1:45:27( 38 ) 0:46:38( 12 ) 0:19:56   4
26 25   351 Auert, Heiko   71 TM35 4   2:32:16 0:25:37( 53 ) 1:17:21( 21 ) 1:42:58( 32 ) 0:49:18( 26 ) 0:20:07   4
27 26   508 Brauer, Simon Berlin 76 TM30 6   2:32:34 0:25:23( 50 ) 1:14:59( 9 ) 1:40:22( 17 ) 0:52:12( 50 ) 0:20:25   4
28 27   377 Freistedt, Christian Panketal 87 TM20 2   2:33:08 0:22:05( 15 ) 1:18:34( 29 ) 1:40:39( 22 ) 0:52:29( 52 ) 0:20:59   4
29 28   381 Gierke, Toni   83 TM25 4   2:33:35 0:22:19( 22 ) 1:20:23( 45 ) 1:42:42( 28 ) 0:50:53( 36 ) 0:21:26   4
29 28   479 Tischendorf, Robert   80 TM30 7   2:33:35 0:26:19( 68 ) 1:19:13( 34 ) 1:45:32( 39 ) 0:48:03( 16 ) 0:21:26   4
31 30   357 Bousfield, Russell   82 TM25 5   2:33:39 0:24:54( 39 ) 1:18:00( 25 ) 1:42:54( 31 ) 0:50:45( 34 ) 0:21:30   4
32 31   447 Perlaki, Pascal Berliner TSC 76 TM30 8   2:33:44 0:23:16( 28 ) 1:17:27( 22 ) 1:40:43( 24 ) 0:53:01( 56 ) 0:21:35   4
33 32   480 Tscherner, Volker FinanzConsult Schwedt 62 TM45 3   2:34:02 0:25:52( 58 ) 1:16:55( 17 ) 1:42:47( 29 ) 0:51:15( 44 ) 0:21:53   4
34 33   414 Kopisch, Sven   66 TM40 9   2:34:29 0:25:16( 43 ) 1:17:15( 19 ) 1:42:31( 26 ) 0:51:58( 48 ) 0:22:20   4
35 34   504 Schultheiß, Stephen KSV Ajax Neptun Berlin 77 TM30 9   2:34:33 0:23:10( 26 ) 1:20:22( 44 ) 1:43:32( 37 ) 0:51:01( 40 ) 0:22:24   4
36 35   391 Henke, Dennis Millwall FC 74 TM35 5   2:34:42 0:31:12(126) 1:14:22( 7 ) 1:45:34( 41 ) 0:49:08( 23 ) 0:22:33   4
37 36   424 Lemberg, Martin PAIN IS TEMPORARY 82 TM25 6   2:34:47 0:28:17( 96 ) 1:17:17( 20 ) 1:45:34( 41 ) 0:49:13( 25 ) 0:22:38   4
38 37   436 Morgenstern, Thomas Sisu Berlin 68 TM40 10   2:35:01 0:22:09( 17 ) 1:21:05( 52 ) 1:43:14( 36 ) 0:51:47( 46 ) 0:22:52   4
39 38   402 Janke, Hartmut Einheit Potsdam 65 TM45 4   2:35:32 0:25:22( 49 ) 1:21:22( 55 ) 1:46:44( 52 ) 0:48:48( 22 ) 0:23:23   4
40 39   460 Scholz, Janek Panketal 79 TM30 10   2:35:52 0:22:27( 23 ) 1:20:41( 47 ) 1:43:08( 33 ) 0:52:44( 54 ) 0:23:43   4
41 40   385 Gösta, Schmidt NYHA III 68 TM40 11   2:36:54 0:27:09( 80 ) 1:19:19( 37 ) 1:46:28( 49 ) 0:50:26( 32 ) 0:24:45   4
42 41   487 Weidemann, Thomas TSV 62 Prenzlau 72 TM35 6   2:37:49 0:26:08( 64 ) 1:21:03( 51 ) 1:47:11( 55 ) 0:50:38( 33 ) 0:25:40   4
43 42   353 Behrends, Jan Dauerbrenner Berlin 79 TM30 11   2:38:37 0:25:35( 52 ) 1:24:57( 73 ) 1:50:32( 69 ) 0:48:05( 17 ) 0:26:28   4
44 43   369 Ebert, Daniel Ebert-Runners 89 TM20 3   2:38:51 0:26:57( 76 ) 1:19:05( 33 ) 1:46:02( 46 ) 0:52:49( 55 ) 0:26:42   4
45 44   518 Ruess, Martin BSV Friesen Berlin 58 TM50 2   2:39:06 0:25:49( 56 ) 1:22:20( 59 ) 1:48:09( 60 ) 0:50:57( 39 ) 0:26:57   4
46 45   422 Lanwehr, Michael TuS Neukölln Berlin 62 TM45 5   2:39:10 0:26:52( 74 ) 1:18:51( 30 ) 1:45:43( 43 ) 0:53:27( 60 ) 0:27:01   4
47 46   520 Winkler, Roland A3K Berlin 47 TM60 1   2:39:14 0:26:04( 62 ) 1:22:21( 61 ) 1:48:25( 61 ) 0:50:49( 35 ) 0:27:05   4
48 47   355 Bossog, Marcel Team Erdinger Alkoholfrei 76 TM30 12   2:39:21 0:25:41( 54 ) 1:20:09( 41 ) 1:45:50( 44 ) 0:53:31( 61 ) 0:27:12   4
49 48   386 Goydke, Robert Volkssport Borkheide 66 TM40 12   2:39:24 0:22:11( 18 ) 1:21:00( 49 ) 1:43:11( 34 ) 0:56:13( 81 ) 0:27:15   4
50 49   390 Heitmann, Torsten Ksv-Ajax Neptun Berlin 80 TM30 13   2:39:43 0:31:08(125) 1:18:58( 32 ) 1:50:06( 68 ) 0:49:37( 29 ) 0:27:34   4
51 50   515 Prax, Ludwig Triathlon Spreewald e.V. 60 TM50 3   2:39:53 0:23:00( 24 ) 1:20:13( 43 ) 1:43:13( 35 ) 0:56:40( 85 ) 0:27:44   4
52 51   522 Göhler, Nico   88 TM20 4   2:40:39 0:25:55( 59 ) 1:19:55( 40 ) 1:45:50( 44 ) 0:54:49( 68 ) 0:28:30   4
53 52   501 Weber, Ingo VS Berlin 60 TM50 4   2:40:50 0:28:35( 99 ) 1:22:49( 63 ) 1:51:24( 72 ) 0:49:26( 28 ) 0:28:41   4
54 53   411 Klages, Jan Marienbürger 70 TM40 13   2:41:02 0:25:21( 47 ) 1:22:25( 62 ) 1:47:46( 59 ) 0:53:16( 57 ) 0:28:53   4
55 54   453 Rühlemann, Uwe TV Fürstenwalde 1990 66 TM40 14   2:41:09 0:26:49( 72 ) 1:20:55( 48 ) 1:47:44( 58 ) 0:53:25( 58 ) 0:29:00   4
56   2 523 Wolpert, Isabelle Tri Team Berlin 88 TW20   1 2:41:13 0:23:18( 29 ) 1:22:15( 58 ) 1:45:33( 40 ) 0:55:40( 78 ) 0:29:04   4
57 55   428 Lüders, Roland Berliner Wasserratten 66 TM40 15   2:41:31 0:26:12( 65 ) 1:21:29( 56 ) 1:47:41( 57 ) 0:53:50( 62 ) 0:29:22   4
58   3 410 Kern, Anja Christine Tri Team Berlin 83 TW25   2 2:41:48 0:22:04( 13 ) 1:28:32(104) 1:50:36( 70 ) 0:51:12( 43 ) 0:29:39   4
59 56   417 Kubik, Martin SV 90 Pinnow 84 TM25 7   2:41:53 0:28:38(101) 1:24:52( 71 ) 1:53:30( 84 ) 0:48:23( 19 ) 0:29:44   4
60 57   387 Greulich, Lutz ESV 49 e.V. Angermünde 66 TM40 16   2:42:04 0:24:06( 34 ) 1:25:54( 83 ) 1:50:00( 67 ) 0:52:04( 49 ) 0:29:55   4
61 58   477 Szymanski, Mark Tri Team Berlin 69 TM40 17   2:42:15 0:24:52( 38 ) 1:17:55( 23 ) 1:42:47( 29 ) 0:59:28(104) 0:30:06   4
62 59   492 Willendorf, Nicola 1.Ju-Jutsu-Verein Bernau 72 TM35 7   2:43:16 0:27:19( 81 ) 1:19:13( 34 ) 1:46:32( 50 ) 0:56:44( 87 ) 0:31:07   4
63 60   490 Wiederuh, Torsten Gipfelstürmer München 80 TM30 14   2:43:31 0:26:58( 77 ) 1:19:25( 38 ) 1:46:23( 47 ) 0:57:08( 90 ) 0:31:22   4
64 61   388 Habereder, Armin ESV 49 Angermünde 66 TM40 18   2:44:10 0:25:45( 55 ) 1:25:59( 85 ) 1:51:44( 76 ) 0:52:26( 51 ) 0:32:01   4
65 62   406 Kantimm, Thomas Drensteinfurt 61 TM45 6   2:44:11 0:24:35( 37 ) 1:25:16( 78 ) 1:49:51( 66 ) 0:54:20( 65 ) 0:32:02   4
66 63   502 Lauter, Frank Berlin 67 TM40 19   2:44:13 0:24:32( 36 ) 1:25:05( 74 ) 1:49:37( 64 ) 0:54:36( 67 ) 0:32:04   4
67 64   372 Endres, Karl-Heinz TSG Limbach 61 TM45 7   2:44:16 0:23:45( 31 ) 1:22:50( 64 ) 1:46:35( 51 ) 0:57:41( 94 ) 0:32:07   4
68   4 383 Golze, Nicole TV Fürstenwalde 1990 74 TW35   1 2:44:22 0:31:22(128) 1:24:16( 67 ) 1:55:38( 91 ) 0:48:44( 21 ) 0:32:13   4
69 65   506 Stargard, Rene Schwedt 66 TM40 20   2:44:27 0:24:58( 40 ) 1:24:17( 68 ) 1:49:15( 63 ) 0:55:12( 71 ) 0:32:18   4
70 66   483 Usadel, Thomas SV Medizin Eberswalde 83 TM25 8   2:44:35 0:25:20( 46 ) 1:26:32( 88 ) 1:51:52( 77 ) 0:52:43( 53 ) 0:32:26   4
71 67   396 Holland, Jonathan Triathlon Friedrichshain 60 TM50 5   2:45:52 0:27:54( 89 ) 1:19:15( 36 ) 1:47:09( 54 ) 0:58:43(100) 0:33:43   4
72 68   435 Möller, Jörg MSV Tripoint Frankfurt/O. 66 TM40 21   2:46:03 0:23:37( 30 ) 1:24:52( 71 ) 1:48:29( 62 ) 0:57:34( 93 ) 0:33:54   4
73 69   443 Nieswand, André Spandau 74 TM35 8   2:47:02 0:27:05( 78 ) 1:24:27( 70 ) 1:51:32( 75 ) 0:55:30( 76 ) 0:34:53   4
74 70   444 Oestereich, Philipp   81 TM25 9   2:47:08 0:34:08(145) 1:21:53( 57 ) 1:56:01( 95 ) 0:51:07( 41 ) 0:34:59   4
75 71   465 schukowski, stephan schlammflizer 63 TM45 8   2:47:26 0:28:02( 92 ) 1:27:51( 96 ) 1:55:53( 93 ) 0:51:33( 45 ) 0:35:17   4
76 72   366 Dahn, Tilo amselhainer wheelers 66 TM40 22   2:47:34 0:27:52( 87 ) 1:25:42( 82 ) 1:53:34( 85 ) 0:54:00( 63 ) 0:35:25   4
77 73   512 Kröhnert, Steffen Berlin 69 TM40 23   2:48:03 0:26:07( 63 ) 1:25:23( 79 ) 1:51:30( 74 ) 0:56:33( 83 ) 0:35:54   4
78 74   485 Wegener, Alexander   79 TM30 15   2:48:34 0:26:15( 67 ) 1:21:01( 50 ) 1:47:16( 56 ) 1:01:18(114) 0:36:25   4
79 75   495 Zepper, Patrick TV Fürstenwalde 1990 80 TM30 16   2:48:44 0:25:34( 51 ) 1:21:21( 54 ) 1:46:55( 53 ) 1:01:49(116) 0:36:35   4
80 76   484 Venn, Giscard Berliner TSC 64 TM45 9   2:48:50 0:30:02(115) 1:23:20( 65 ) 1:53:22( 83 ) 0:55:28( 74 ) 0:36:41   4
81 77   437 Mugele, Kai   68 TM40 24   2:49:05 0:26:03( 61 ) 1:20:24( 46 ) 1:46:27( 48 ) 1:02:38(121) 0:36:56   4
82 78   517 Terzer, Olaf KSC Strausberg 70 TM40 25   2:49:27 0:25:55( 59 ) 1:23:49( 66 ) 1:49:44( 65 ) 0:59:43(106) 0:37:18   4
83 79   445 Osterland, Stefan Gegenbauer 71 TM35 9   2:49:29 0:26:51( 73 ) 1:25:14( 77 ) 1:52:05( 78 ) 0:57:24( 92 ) 0:37:20   4
84 80   486 Wegner, Jens SRQ 72 TM35 10   2:50:14 0:25:02( 41 ) 1:25:37( 81 ) 1:50:39( 71 ) 0:59:35(105) 0:38:05   4
85 81   497 Pingel, Sebastian   79 TM30 17   2:50:51 0:31:44(131) 1:25:06( 75 ) 1:56:50(101) 0:54:01( 64 ) 0:38:42   4
86 82   496 Zimmermann, Ingo SC Borussia Friedrichsf. 65 TM45 10   2:50:55 0:32:04(133) 1:27:56( 98 ) 2:00:00(113) 0:50:55( 37 ) 0:38:46   4
87 83   476 Stendal, Alexander 1.Ju-Jutsu-Verein Bernau 65 TM45 11   2:51:08 0:29:11(112) 1:26:52( 89 ) 1:56:03( 96 ) 0:55:05( 70 ) 0:38:59   4
88 84   468 Schulz, Jan SV Stahl Hennigsdorf 62 TM45 12   2:51:20 0:30:03(116) 1:25:56( 84 ) 1:55:59( 94 ) 0:55:21( 73 ) 0:39:11   4
89 85   448 Pilarski, Georg Potsdam 80 TM30 18   2:51:22 0:27:48( 86 ) 1:26:55( 90 ) 1:54:43( 88 ) 0:56:39( 84 ) 0:39:13   4
90 86   426 Liebenwald, Lutz Lutz u. Mario 67 TM40 26   2:51:37 0:27:44( 84 ) 1:27:11( 91 ) 1:54:55( 89 ) 0:56:42( 86 ) 0:39:28   4
91 87   438 Mühl, Gawan   81 TM25 10   2:52:06 0:28:47(105) 1:28:04( 99 ) 1:56:51(102) 0:55:15( 72 ) 0:39:57   4
92 88   362 Brandis, Daniel POTSDAM 73 TM35 11   2:52:22 0:27:54( 89 ) 1:28:16(101) 1:56:10( 98 ) 0:56:12( 80 ) 0:40:13   4
93 89   358 Böwe, Christian   74 TM35 12   2:52:46 0:27:23( 82 ) 1:28:24(102) 1:55:47( 92 ) 0:56:59( 89 ) 0:40:37   4
94 90   389 Hedelt, Jörg-Mario TSV Cottbus 64 TM45 13   2:53:02 0:28:37(100) 1:27:32( 92 ) 1:56:09( 97 ) 0:56:53( 88 ) 0:40:53   4
95 91   361 Brandenburg, Olaf TV Dresden 60 TM50 6   2:53:18 0:25:19( 45 ) 1:27:50( 95 ) 1:53:09( 82 ) 1:00:09(107) 0:41:09   4
96 92   418 Kühnel, Thomas Teamwork 68 TM40 27   2:53:45 0:29:06(111) 1:22:20( 60 ) 1:51:26( 73 ) 1:02:19(119) 0:41:36   4
97 93   434 Michl, Christopher Berliner Wasserratten 75 TM35 13   2:53:50 0:27:07( 79 ) 1:28:26(103) 1:55:33( 90 ) 0:58:17( 96 ) 0:41:41   4
98 94   367 Degen, Thomas 3athlon.org 65 TM45 14   2:54:09 0:00:00 0:00:00 1:53:04( 81 ) 1:01:05(113) 0:42:00   4
99 95   475 Stahnke, Matthias SSV Hohen Neuendorf 62 TM45 15   2:54:39 0:32:36(135) 1:27:41( 93 ) 2:00:17(115) 0:54:22( 66 ) 0:42:30   4
100 96   420 Kurowski, Thomas Squash Club Buschkrug Ber 63 TM45 16   2:55:00 0:28:19( 97 ) 1:28:12(100) 1:56:31( 99 ) 0:58:29( 98 ) 0:42:51   4
101   5 416 Kracht, Miriam Gut Heil Itzehoe 77 TW30   1 2:55:37 0:25:51( 57 ) 1:31:00(112) 1:56:51(102) 0:58:46(101) 0:43:28   4
102 97   401 Jahn, Helge UBA Dessau 71 TM35 14   2:55:47 0:30:44(121) 1:31:36(116) 2:02:20(121) 0:53:27( 59 ) 0:43:38   4
103 98   499 Adomal, Merten Ruppiner Triathlon Verein 80 TM30 19   2:56:17 0:30:37(119) 1:26:28( 87 ) 1:57:05(104) 0:59:12(103) 0:44:08   4
104 99   403 Jordan, Mario Lutze und Mario 76 TM30 20   2:56:27 0:31:37(130) 1:29:22(107) 2:00:59(117) 0:55:28( 74 ) 0:44:18   4
105   6 471 Schulz, Katja Lupus-Team Zehdenick 79 TW30   2 2:56:31 0:30:22(118) 1:31:04(113) 2:01:26(118) 0:55:05( 69 ) 0:44:22   4
106 100   478 Tauscher, Hardy Potsdam 61 TM45 17   2:56:42 0:31:16(127) 1:28:54(105) 2:00:10(114) 0:56:32( 82 ) 0:44:33   4
107 101   365 Brunzlow, André A3K Berlin 69 TM40 28   2:57:22 0:28:13( 95 ) 1:28:55(106) 1:57:08(105) 1:00:14(108) 0:45:13   4
108 102   458 Schnabel, Ralf Leipzig 63 TM45 18   2:57:53 0:33:39(140) 1:25:34( 80 ) 1:59:13(112) 0:58:40( 99 ) 0:45:44   4
109 103   491 Wiehle, Steffen Strahlemann-Magneto 72 TM35 15   2:59:06 0:26:31( 70 ) 1:26:04( 86 ) 1:52:35( 79 ) 1:06:31(131) 0:46:57   4
110 104   409 Kerber, Jan SBB 63 TM45 19   2:59:09 0:27:47( 85 ) 1:30:21(108) 1:58:08(107) 1:01:01(111) 0:47:00   4
111 105   373 Fickenscher, Guido TSC Berlin 68 TM40 29   3:00:23 0:26:25( 69 ) 1:31:39(117) 1:58:04(106) 1:02:19(119) 0:48:14   4
112 106   461 Scholze, Matthias Sisu Berlin 74 TM35 16   3:00:29 0:29:15(113) 1:24:25( 69 ) 1:53:40( 86 ) 1:06:49(133) 0:48:20   4
113   7 430 Marusch, Katja Hauptstadt-Power 77 TW30   3 3:01:18 0:28:06( 93 ) 1:30:55(111) 1:59:01(111) 1:02:17(118) 0:49:09   4
114 107   521 Junge, Michael München 83 TM25 11   3:01:45 0:28:56(107) 1:27:51( 96 ) 1:56:47(100) 1:04:58(126) 0:49:36   4
115   8 363 Brandis, Sandy POTSDAM 79 TW30   4 3:01:56 0:27:55( 91 ) 1:30:42(109) 1:58:37(109) 1:03:19(124) 0:49:47   4
116 108   493 Wolf, Alexander   83 TM25 12   3:02:08 0:29:02(109) 1:35:51(129) 2:04:53(127) 0:57:15( 91 ) 0:49:59   4
117 109   404 Kamat, Yusuf Triathlon-Team-Berlin 81 TM25 13   3:02:43 0:33:06(136) 1:31:14(114) 2:04:20(125) 0:58:23( 97 ) 0:50:34   4
118   9 446 Paech, Claudia pebe sport 66 TW40   1 3:02:55 0:32:22(134) 1:32:44(122) 2:05:06(128) 0:57:49( 95 ) 0:50:46   4
119 110   466 Schuld, Marc Weltraumjogger Berlin 67 TM40 30   3:03:26 0:26:34( 71 ) 1:31:50(119) 1:58:24(108) 1:05:02(127) 0:51:17   4
120 111   359 Boy, Helmut Berlin 59 TM50 7   3:04:12 0:26:55( 75 ) 1:27:46( 94 ) 1:54:41( 87 ) 1:09:31(141) 0:52:03   4
121 112   364 Bruhn, Thomas Welt Verein 81 TM25 14   3:05:03 0:29:03(110) 1:33:08(123) 2:02:11(120) 1:02:52(122) 0:52:54   4
122 113   405 Kannapinn, Dr. Sönke   64 TM45 20   3:05:38 0:28:54(106) 1:35:41(127) 2:04:35(126) 1:01:03(112) 0:53:29   4
123 114   421 Ladewig, Ronny   65 TM45 21   3:06:00 0:31:28(129) 1:34:13(124) 2:05:41(130) 1:00:19(109) 0:53:51   4
124   10 519 Siegmund, Stefanie BSV Friesen 75 TW35   2 3:06:18 0:24:28( 35 ) 1:39:43(139) 2:04:11(123) 1:02:07(117) 0:54:09   4
125 115   398 Hoyer, Detlef Berlin 59 TM50 8   3:07:35 0:28:21( 98 ) 1:35:55(130) 2:04:16(124) 1:03:19(124) 0:55:26   4
126   11 511 Kröger, Maja LC Stolpertruppe 66 TW40   2 3:07:59 0:26:14( 66 ) 1:32:38(121) 1:58:52(110) 1:09:07(140) 0:55:50   4
127   12 415 Kopplin, Renate Kopplin LfV Oberholz 86 TW20   2 3:08:31 0:30:42(120) 1:31:49(118) 2:02:31(122) 1:06:00(130) 0:56:22   4
128   13 450 Purwin, Manuela Bernauer Lauffreunde 67 TW40   3 3:09:23 0:30:45(122) 1:30:51(110) 2:01:36(119) 1:07:47(135) 0:57:14   4
129 116   284 Buch, Matthias Joachimsthal 65 TM45 22   3:10:26 0:33:59(144) 1:35:50(128) 2:09:49(138) 1:00:37(110) 0:58:17   4
130 117   356 Bouge, Jeremie   82 TM25 15   3:10:31 0:33:20(139) 1:41:39(143) 2:14:59(144) 0:55:32( 77 ) 0:58:22   4
131   14 394 Hildebrandt, Sandra Weltraumjogger Berlin 71 TW35   3 3:11:13 0:29:00(108) 1:38:59(138) 2:07:59(134) 1:03:14(123) 0:59:04   4
132 118   407 Karrer, Simon Bergwaldprojekt 72 TM35 17   3:11:31 0:29:25(114) 1:31:19(115) 2:00:44(116) 1:10:47(144) 0:59:22   4
133   15 469 Schulz, Tanja Tri Team Berlin 74 TW35   4 3:12:16 0:28:11( 94 ) 1:37:18(133) 2:05:29(129) 1:06:47(132) 1:00:07   4
134 119   440 Müller, Thomas Tannenhof Berlin-Brandenb 62 TM45 23   3:14:12 0:41:44(149) 1:36:21(131) 2:18:05(149) 0:56:07( 79 ) 1:02:03   4
135 120   376 Franke, Norbert SV Stahl Hennigsdorf 50 TM60 2   3:15:32 0:33:19(138) 1:43:15(147) 2:16:34(148) 0:58:58(102) 1:03:23   4
136   16 423 Laska, Franziska Eberswalder SV 52 TW55   1 3:17:17 0:32:01(132) 1:37:57(135) 2:09:58(139) 1:07:19(134) 1:05:08   4
137 121   352 Badurke, Axel Berliner Feuerwehr 64 TM45 24   3:18:23 0:30:49(123) 1:38:40(137) 2:09:29(136) 1:08:54(138) 1:06:14   4
138 122   374 Förder, Stefan   80 TM30 21   3:18:33 0:27:53( 88 ) 1:25:08( 76 ) 1:53:01( 80 ) 1:25:32(152) 1:06:24   4
139 123   467 Schultz, René   80 TM30 22   3:18:35 0:27:36( 83 ) 1:42:08(146) 2:09:44(137) 1:08:51(137) 1:06:26   4
140 124   380 Geißler, Gerald VfV Pädagogik Schönwalde 62 TM45 25   3:19:16 0:30:17(117) 1:37:29(134) 2:07:46(133) 1:11:30(145) 1:07:07   4
141 125   457 Schmidt, Heiko   65 TM45 26   3:20:06 0:28:40(102) 1:46:15(148) 2:14:55(143) 1:05:11(128) 1:07:57   4
142   17 371 Eichhorst, Simone HSG Uni Greifswald 67 TW40   4 3:20:55 0:34:19(146) 1:41:02(141) 2:15:21(147) 1:05:34(129) 1:08:46   4
143 126   462 Schönemann, Frank Team Erdinger Alkoholfrei 70 TM40 31   3:21:40 0:36:45(148) 1:34:52(125) 2:11:37(141) 1:10:03(143) 1:09:31   4
144 127   507 Battistini, Pietro Wasserratten 45 TM65 1   3:21:55 0:31:06(124) 1:35:18(126) 2:06:24(132) 1:15:31(148) 1:09:46   4
145 128   382 Golpon, Sascha MRV 69 TM40 32   3:22:56 0:35:57(147) 1:37:58(136) 2:13:55(142) 1:09:01(139) 1:10:47   4
146 129   419 Kulling, Markus Ruderclub Oberhavel 73 TM35 18   3:22:59 0:33:57(143) 1:41:07(142) 2:15:04(146) 1:07:55(136) 1:10:50   4
147 130   494 Wolfgram, Arne ARNEWOLFGRAM 66 TM40 33   3:23:02 0:28:46(104) 1:42:00(145) 2:10:46(140) 1:12:16(146) 1:10:53   4
148 131   513 Matthes, Bodo LC Ron-Hill-Berlin e.V. 64 TM45 27   3:23:29 0:45:05(151) 1:36:56(132) 2:22:01(150) 1:01:28(115) 1:11:20   4
149 132   370 Ehlers, Michael SV Stahl Hennigsdorf 59 TM50 9   3:24:08 0:28:45(103) 1:40:41(140) 2:09:26(135) 1:14:42(147) 1:11:59   4
150 133   459 Schneider, Robert Berlin 56 TM50 10   3:24:45 0:33:08(137) 1:41:52(144) 2:15:00(145) 1:09:45(142) 1:12:36   4
151 134   384 Golze, Björn TV Fürstenwalde 1990 73 TM35 19   3:25:02 0:33:54(142) 1:31:58(120) 2:05:52(131) 1:19:10(150) 1:12:53   4
152   18 481 Ueberschär, Ina LFV Oberholz 52 TW55   2 3:45:18 0:33:42(141) 1:53:03(149) 2:26:45(151) 1:18:33(149) 1:33:09   4
153   19 412 Klingsporn, Annett   66 TW40   5 4:03:10 0:42:59(150) 1:58:08(150) 2:41:07(152) 1:22:03(151) 1:51:01   4
(c) 1990-2012 Blue Wonder Sport Promotion - Andreas Burow - Zeitnahme & Auswertung - www.Triathlon-Service.de